Time;durP1;ratioP1;P1;durP2;ratioP2;P2;SDS_P1;SDS_P2;PMS_P1;PMS_P2;Temp;Humidity;BMP_temperature;BMP_pressure;BME280_temperature;BME280_humidity;BME280_pressure;Samples;Min_cycle;Max_cycle;Signal;HPM_P1;HPM_P2
2022/04/16 00:00:14;;;;;;;13.80;7.65;;;7.20;99.90;;;;;;4997932;28;20042;-80
2022/04/16 00:02:39;;;;;;;15.05;8.73;;;7.20;99.90;;;;;;4998316;28;20038;-81
2022/04/16 00:05:06;;;;;;;19.02;8.90;;;7.10;99.90;;;;;;5015728;28;20496;-80
2022/04/16 00:07:32;;;;;;;20.00;8.75;;;7.00;99.90;;;;;;5014544;28;20100;-80
2022/04/16 00:09:58;;;;;;;16.42;8.68;;;7.00;99.90;;;;;;5014347;28;20049;-81
2022/04/16 00:12:24;;;;;;;15.48;8.68;;;7.00;99.90;;;;;;5015525;28;20401;-80
2022/04/16 00:14:50;;;;;;;18.02;8.43;;;6.90;99.90;;;;;;4998790;28;20132;-80
2022/04/16 00:17:16;;;;;;;16.60;8.93;;;6.90;99.90;;;;;;4998779;28;20048;-80
2022/04/16 00:19:43;;;;;;;18.15;8.48;;;6.80;99.90;;;;;;5014601;28;20599;-80
2022/04/16 00:22:12;;;;;;;17.33;9.32;;;6.70;99.90;;;;;;4998615;28;20045;-81
2022/04/16 00:24:39;;;;;;;18.90;9.48;;;6.70;99.90;;;;;;5013140;28;20088;-80
2022/04/16 00:27:06;;;;;;;18.70;9.40;;;6.70;99.90;;;;;;5014156;28;20076;-80
2022/04/16 00:29:32;;;;;;;23.17;9.38;;;6.60;99.90;;;;;;5014926;28;20578;-80
2022/04/16 00:31:58;;;;;;;22.73;9.82;;;6.60;99.90;;;;;;5014439;28;20049;-80
2022/04/16 00:34:23;;;;;;;18.60;9.60;;;6.60;99.90;;;;;;4998034;28;20077;-80
2022/04/16 00:36:49;;;;;;;18.27;9.25;;;6.60;99.90;;;;;;5026169;28;20041;-80
2022/04/16 00:39:14;;;;;;;17.45;9.52;;;6.50;99.90;;;;;;5014758;28;20049;-81
2022/04/16 00:41:40;;;;;;;17.58;9.95;;;6.50;99.90;;;;;;5001338;28;20112;-80
2022/04/16 00:44:06;;;;;;;17.63;9.88;;;6.50;99.90;;;;;;5012083;28;20362;-81
2022/04/16 00:46:32;;;;;;;17.95;9.15;;;6.50;99.90;;;;;;4995462;28;20034;-81
2022/04/16 00:48:58;;;;;;;19.10;9.65;;;6.40;99.90;;;;;;5011726;28;20042;-80
2022/04/16 00:51:24;;;;;;;22.65;10.25;;;6.40;99.90;;;;;;5011683;28;20524;-81
2022/04/16 00:53:50;;;;;;;17.98;8.98;;;6.30;99.90;;;;;;5013263;28;20046;-80
2022/04/16 00:56:15;;;;;;;17.20;8.80;;;6.30;99.90;;;;;;5013204;28;20126;-81
2022/04/16 00:58:41;;;;;;;18.52;9.98;;;6.20;99.90;;;;;;4995218;28;20201;-81
2022/04/16 01:01:08;;;;;;;19.27;10.23;;;6.20;99.90;;;;;;4995356;28;20623;-80
2022/04/16 01:03:33;;;;;;;18.50;10.45;;;6.20;99.90;;;;;;5011546;28;20045;-80
2022/04/16 01:05:59;;;;;;;20.45;9.77;;;6.20;99.90;;;;;;5011742;28;20045;-81
2022/04/16 01:08:24;;;;;;;20.85;10.65;;;6.10;99.90;;;;;;4995188;28;20046;-80
2022/04/16 01:10:50;;;;;;;21.02;10.15;;;6.10;99.90;;;;;;4995013;28;20073;-80
2022/04/16 01:13:18;;;;;;;16.70;9.82;;;6.00;99.90;;;;;;5011906;28;20088;-80
2022/04/16 01:15:44;;;;;;;17.60;9.63;;;6.00;99.90;;;;;;4995289;28;20538;-80
2022/04/16 01:18:12;;;;;;;29.10;12.00;;;6.00;99.90;;;;;;5012034;28;20042;-80
2022/04/16 01:20:39;;;;;;;16.27;9.82;;;6.00;99.90;;;;;;5011396;28;20046;-80
2022/04/16 01:23:05;;;;;;;24.52;11.45;;;5.90;99.90;;;;;;5012003;28;20049;-80
2022/04/16 01:25:33;;;;;;;20.77;11.02;;;5.90;99.90;;;;;;4995295;28;20523;-80
2022/04/16 01:28:03;;;;;;;19.55;11.13;;;5.80;99.90;;;;;;5012005;28;20052;-80
2022/04/16 01:30:29;;;;;;;23.65;10.85;;;5.90;99.90;;;;;;5012795;28;20432;-80
2022/04/16 01:32:55;;;;;;;21.33;10.27;;;5.90;99.90;;;;;;5012979;28;20463;-80
2022/04/16 01:35:20;;;;;;;22.88;11.00;;;5.80;99.90;;;;;;5011483;28;20137;-80
2022/04/16 01:37:46;;;;;;;23.05;11.70;;;5.80;99.90;;;;;;4994685;28;20048;-80
2022/04/16 01:40:14;;;;;;;20.55;10.40;;;5.80;99.90;;;;;;5011551;28;20042;-80
2022/04/16 01:42:43;;;;;;;20.65;11.10;;;5.60;99.90;;;;;;5011792;28;20048;-80
2022/04/16 01:45:11;;;;;;;21.88;11.00;;;5.70;99.90;;;;;;5011719;28;20108;-80
2022/04/16 01:47:39;;;;;;;22.27;11.48;;;5.60;99.90;;;;;;4995737;28;20046;-80
2022/04/16 01:50:07;;;;;;;24.63;12.05;;;5.60;99.90;;;;;;5011703;28;20489;-80
2022/04/16 01:52:35;;;;;;;28.08;11.68;;;5.60;99.90;;;;;;5011715;28;20113;-80
2022/04/16 01:55:00;;;;;;;22.98;12.75;;;5.70;99.90;;;;;;5012624;28;20529;-80
2022/04/16 01:57:26;;;;;;;24.67;14.07;;;5.80;99.90;;;;;;5012392;28;20076;-79
2022/04/16 01:59:52;;;;;;;27.95;11.77;;;5.90;99.90;;;;;;5010989;28;20042;-80
2022/04/16 02:02:19;;;;;;;26.75;12.45;;;5.90;99.90;;;;;;4995331;28;20153;-80
2022/04/16 02:04:45;;;;;;;26.95;12.07;;;6.00;99.90;;;;;;5012001;28;20095;-80
2022/04/16 02:07:11;;;;;;;26.20;12.65;;;5.80;99.90;;;;;;5012025;28;20041;-80
2022/04/16 02:09:38;;;;;;;25.80;12.68;;;6.00;99.90;;;;;;4995380;28;20034;-80
2022/04/16 02:12:04;;;;;;;20.38;11.57;;;5.90;99.90;;;;;;5012178;28;20505;-80
2022/04/16 02:14:29;;;;;;;21.58;11.52;;;5.90;99.90;;;;;;5011976;28;20042;-80
2022/04/16 02:16:57;;;;;;;25.73;11.75;;;5.90;99.90;;;;;;5011795;28;20593;-80
2022/04/16 02:19:23;;;;;;;21.35;11.52;;;5.90;99.90;;;;;;4995294;28;20038;-80
2022/04/16 02:21:49;;;;;;;22.33;11.35;;;5.80;99.90;;;;;;5011689;28;20403;-80
2022/04/16 02:24:17;;;;;;;20.63;11.32;;;5.90;99.90;;;;;;5012023;28;20376;-80
2022/04/16 02:26:44;;;;;;;28.15;13.68;;;5.90;99.90;;;;;;4995632;28;20030;-80
2022/04/16 02:29:10;;;;;;;24.33;11.48;;;5.90;99.90;;;;;;5012758;28;20092;-80
2022/04/16 02:31:37;;;;;;;26.05;12.05;;;6.00;99.90;;;;;;5010977;28;20451;-80
2022/04/16 02:34:05;;;;;;;23.00;12.55;;;5.90;99.90;;;;;;4994811;28;20038;-80
2022/04/16 02:36:34;;;;;;;22.77;12.65;;;5.80;99.90;;;;;;5013025;28;20058;-80
2022/04/16 02:39:00;;;;;;;24.63;12.80;;;5.80;99.90;;;;;;4995465;28;20055;-80
2022/04/16 02:41:26;;;;;;;25.92;14.10;;;5.80;99.90;;;;;;5011326;28;20072;-80
2022/04/16 02:43:54;;;;;;;24.77;11.60;;;5.70;99.90;;;;;;5011072;28;20139;-80
2022/04/16 02:49:13;;;;;;;26.25;12.77;;;5.80;99.90;;;;;;5014361;28;20543;-80
2022/04/16 02:51:39;;;;;;;22.80;11.75;;;5.70;99.90;;;;;;5014985;28;20049;-80
2022/04/16 02:54:05;;;;;;;28.00;12.32;;;5.60;99.90;;;;;;5015795;28;20049;-80
2022/04/16 02:56:31;;;;;;;25.83;12.50;;;5.60;99.90;;;;;;5015023;28;20046;-80
2022/04/16 02:58:57;;;;;;;26.13;11.38;;;5.60;99.90;;;;;;5014317;28;20073;-80
2022/04/16 03:01:24;;;;;;;28.13;13.18;;;5.60;99.90;;;;;;5014424;28;20477;-80
2022/04/16 03:03:49;;;;;;;27.33;12.98;;;5.50;99.90;;;;;;5014535;28;20043;-80
2022/04/16 03:06:15;;;;;;;24.73;12.75;;;5.50;99.90;;;;;;5014589;28;20060;-79
2022/04/16 03:08:41;;;;;;;28.05;13.38;;;5.50;99.90;;;;;;4998751;28;20041;-80
2022/04/16 03:11:06;;;;;;;30.45;12.50;;;5.40;99.90;;;;;;5014181;28;20474;-80
2022/04/16 03:13:35;;;;;;;27.38;13.18;;;5.40;99.90;;;;;;4998180;28;20046;-79
2022/04/16 03:18:45;;;;;;;27.98;13.50;;;5.40;99.90;;;;;;5015911;28;20120;-80
2022/04/16 03:21:11;;;;;;;26.38;14.13;;;5.40;99.90;;;;;;5014716;28;20069;-80
2022/04/16 03:23:37;;;;;;;23.55;12.43;;;5.40;99.90;;;;;;5014105;28;20042;-79
2022/04/16 03:26:03;;;;;;;29.73;13.32;;;5.40;99.90;;;;;;5016290;28;20050;-79
2022/04/16 03:28:28;;;;;;;26.35;13.45;;;5.30;99.90;;;;;;5014246;28;20032;-80
2022/04/16 03:30:54;;;;;;;31.35;14.60;;;5.30;99.90;;;;;;5029067;28;20049;-79
2022/04/16 03:33:20;;;;;;;32.53;13.70;;;5.30;99.90;;;;;;5032261;28;20041;-80
2022/04/16 03:35:46;;;;;;;30.75;14.77;;;5.30;99.90;;;;;;5014629;28;20035;-80
2022/04/16 03:38:12;;;;;;;25.75;12.68;;;5.20;99.90;;;;;;5013909;28;20504;-80
2022/04/16 03:40:38;;;;;;;32.50;14.30;;;5.20;99.90;;;;;;5013201;28;20046;-80
2022/04/16 03:43:04;;;;;;;29.58;13.80;;;5.10;99.90;;;;;;5014716;28;20069;-80
2022/04/16 03:45:32;;;;;;;30.40;13.35;;;5.10;99.90;;;;;;5015071;28;20037;-80
2022/04/16 03:47:59;;;;;;;31.85;15.25;;;5.10;99.90;;;;;;5013782;28;20492;-80
2022/04/16 03:50:26;;;;;;;38.10;16.30;;;5.20;99.90;;;;;;4997120;28;20131;-80
2022/04/16 03:52:54;;;;;;;31.80;15.65;;;5.20;99.90;;;;;;5013096;28;20052;-80
2022/04/16 04:00:52;;;;;;;30.15;15.93;;;5.50;99.90;;;;;;5013248;28;20061;-80
2022/04/16 04:03:18;;;;;;;36.78;17.35;;;5.60;99.90;;;;;;5014060;28;20072;-80
2022/04/16 04:05:45;;;;;;;36.25;16.23;;;5.70;99.90;;;;;;5030659;28;20069;-80
2022/04/16 04:08:11;;;;;;;33.85;18.23;;;5.80;99.90;;;;;;5014955;28;20118;-80
2022/04/16 04:10:37;;;;;;;39.67;17.17;;;5.90;99.90;;;;;;4997885;28;20053;-80
2022/04/16 04:13:03;;;;;;;40.03;18.45;;;5.90;99.90;;;;;;5014901;28;20030;-80
2022/04/16 04:15:29;;;;;;;39.80;18.20;;;6.00;99.90;;;;;;5014067;28;20050;-79
2022/04/16 04:17:56;;;;;;;36.17;17.75;;;6.10;99.90;;;;;;4998015;28;20488;-80
2022/04/16 04:20:21;;;;;;;38.20;18.85;;;6.20;99.90;;;;;;5016253;28;20077;-80
2022/04/16 04:22:47;;;;;;;36.90;17.42;;;6.30;99.90;;;;;;5015570;28;20072;-80
2022/04/16 04:25:12;;;;;;;31.75;15.55;;;6.40;99.90;;;;;;5014275;28;20037;-80
2022/04/16 04:27:38;;;;;;;33.08;16.00;;;6.50;99.90;;;;;;5015821;28;20038;-80
2022/04/16 04:30:04;;;;;;;37.63;17.27;;;6.60;99.90;;;;;;4998113;28;20061;-80
2022/04/16 04:32:30;;;;;;;32.53;15.93;;;6.70;99.90;;;;;;5014697;28;20088;-80
2022/04/16 04:34:56;;;;;;;31.35;15.63;;;6.70;99.90;;;;;;5015776;28;20042;-80
2022/04/16 04:37:22;;;;;;;39.05;18.00;;;6.80;99.90;;;;;;5014436;28;20045;-80
2022/04/16 04:39:48;;;;;;;33.67;16.38;;;6.90;99.90;;;;;;5013220;28;20054;-80
2022/04/16 04:42:24;;;;;;;33.05;15.70;;;6.80;99.90;;;;;;5015850;28;20046;-80
2022/04/16 04:44:50;;;;;;;31.33;15.45;;;6.90;99.90;;;;;;5014484;28;20081;-80
2022/04/16 04:47:15;;;;;;;34.35;16.35;;;6.90;99.90;;;;;;5013955;28;20069;-80
2022/04/16 04:49:42;;;;;;;28.65;15.77;;;7.00;99.90;;;;;;5013861;28;20099;-80
2022/04/16 04:52:07;;;;;;;30.42;16.20;;;7.00;99.90;;;;;;5015293;28;20405;-80
2022/04/16 04:54:33;;;;;;;35.88;17.85;;;7.10;99.90;;;;;;5013676;28;20048;-80
2022/04/16 04:56:58;;;;;;;29.25;14.13;;;7.10;99.90;;;;;;5014287;28;20045;-80
2022/04/16 04:59:24;;;;;;;31.83;14.82;;;7.10;99.90;;;;;;5014452;28;20050;-81
2022/04/16 05:01:50;;;;;;;23.92;13.93;;;7.10;99.90;;;;;;5013502;28;20571;-79
2022/04/16 05:04:15;;;;;;;27.45;12.60;;;7.10;99.90;;;;;;5014852;28;20034;-79
2022/04/16 05:06:41;;;;;;;20.65;11.48;;;7.20;99.90;;;;;;4997854;28;20030;-79
2022/04/16 05:09:07;;;;;;;23.48;11.93;;;7.20;99.90;;;;;;5013703;28;20042;-79
2022/04/16 05:11:32;;;;;;;26.67;11.27;;;7.30;99.90;;;;;;5012585;28;20042;-79
2022/04/16 05:13:58;;;;;;;23.75;12.27;;;7.30;99.90;;;;;;4996700;28;20489;-80
2022/04/16 05:16:24;;;;;;;24.98;10.80;;;7.40;99.90;;;;;;4997123;28;20798;-79
2022/04/16 05:18:49;;;;;;;23.13;11.98;;;7.40;99.90;;;;;;5014755;28;20033;-80
2022/04/16 05:21:15;;;;;;;24.55;12.32;;;7.40;99.90;;;;;;5013428;28;20484;-80
2022/04/16 05:23:41;;;;;;;24.48;11.73;;;7.40;99.90;;;;;;5013776;28;20088;-80
2022/04/16 05:26:10;;;;;;;22.95;11.38;;;7.50;99.90;;;;;;5012160;28;20496;-80
2022/04/16 05:28:37;;;;;;;27.30;12.98;;;7.50;99.90;;;;;;5016630;28;20050;-80
2022/04/16 05:31:04;;;;;;;20.75;11.57;;;7.50;99.90;;;;;;5014044;28;20056;-80
2022/04/16 05:36:15;;;;;;;22.33;11.77;;;7.60;99.90;;;;;;5014606;28;20136;-80
2022/04/16 05:38:40;;;;;;;19.45;11.45;;;7.60;99.90;;;;;;5013641;28;20069;-80
2022/04/16 05:41:06;;;;;;;23.02;12.65;;;7.60;99.90;;;;;;5013287;28;20042;-80
2022/04/16 05:43:32;;;;;;;25.17;11.48;;;7.60;99.90;;;;;;5014783;28;20037;-81
2022/04/16 05:45:58;;;;;;;23.95;12.40;;;7.70;99.90;;;;;;5016022;28;20099;-80
2022/04/16 05:48:24;;;;;;;20.67;10.88;;;7.70;99.90;;;;;;5015554;28;20554;-80
2022/04/16 05:50:49;;;;;;;24.83;11.10;;;7.80;99.90;;;;;;5013430;28;20413;-80
2022/04/16 05:53:15;;;;;;;20.17;10.77;;;7.80;99.90;;;;;;4997699;28;20120;-80
2022/04/16 05:55:45;;;;;;;17.77;10.70;;;7.90;99.90;;;;;;5013033;28;20125;-81
2022/04/16 05:58:11;;;;;;;23.10;11.73;;;7.90;99.90;;;;;;5013131;28;20034;-80
2022/04/16 06:00:37;;;;;;;25.77;10.98;;;8.00;99.90;;;;;;4994325;28;20057;-80
2022/04/16 06:03:04;;;;;;;24.25;11.82;;;8.00;99.90;;;;;;5011941;28;20038;-81
2022/04/16 06:05:31;;;;;;;21.67;11.73;;;8.20;99.90;;;;;;5012250;28;20049;-81
2022/04/16 06:07:57;;;;;;;19.48;10.60;;;8.30;99.90;;;;;;4995277;28;20170;-81
2022/04/16 06:10:23;;;;;;;18.27;10.52;;;8.30;99.90;;;;;;4995261;28;20045;-80
2022/04/16 06:12:49;;;;;;;19.77;10.07;;;8.40;99.90;;;;;;4999037;28;20495;-81
2022/04/16 06:15:14;;;;;;;22.25;9.90;;;8.40;99.90;;;;;;5016138;28;20042;-81
2022/04/16 06:17:40;;;;;;;19.98;10.43;;;8.50;99.90;;;;;;5015175;28;20122;-80
2022/04/16 06:20:07;;;;;;;22.58;10.20;;;8.60;99.90;;;;;;4996527;28;20038;-80
2022/04/16 06:22:33;;;;;;;19.80;10.77;;;8.70;99.90;;;;;;5027615;28;20543;-80
2022/04/16 06:24:58;;;;;;;19.88;11.00;;;8.70;99.90;;;;;;5030120;28;20046;-81
2022/04/16 06:27:24;;;;;;;20.63;10.13;;;8.80;99.90;;;;;;4999179;28;20041;-80
2022/04/16 06:29:49;;;;;;;19.73;9.35;;;8.80;99.90;;;;;;5015970;28;20053;-81
2022/04/16 06:32:15;;;;;;;38.45;21.02;;;8.90;99.90;;;;;;5016298;28;20119;-80
2022/04/16 06:34:41;;;;;;;19.48;10.73;;;8.90;99.90;;;;;;5014353;28;20050;-80
2022/04/16 06:37:06;;;;;;;21.75;10.93;;;8.90;99.90;;;;;;4997651;28;20042;-80
2022/04/16 06:39:32;;;;;;;19.17;9.80;;;9.00;99.90;;;;;;4997945;28;20073;-79
2022/04/16 06:41:57;;;;;;;19.73;9.98;;;9.00;99.90;;;;;;5015731;28;20053;-80
2022/04/16 06:44:23;;;;;;;21.88;11.65;;;9.00;99.90;;;;;;5014399;28;20129;-80
2022/04/16 06:46:50;;;;;;;20.75;10.07;;;9.10;99.90;;;;;;5016661;28;20065;-80
2022/04/16 06:49:16;;;;;;;19.48;9.85;;;9.20;99.90;;;;;;5014052;28;20056;-80
2022/04/16 06:51:42;;;;;;;18.75;8.38;;;9.30;99.90;;;;;;4997976;28;20042;-80
2022/04/16 06:54:08;;;;;;;19.08;9.48;;;9.30;99.90;;;;;;5014827;28;20377;-80
2022/04/16 06:56:33;;;;;;;16.65;9.25;;;9.30;99.90;;;;;;5014227;28;20517;-80
2022/04/16 06:59:00;;;;;;;18.45;8.75;;;9.40;99.90;;;;;;5013799;28;20160;-80
2022/04/16 07:01:26;;;;;;;22.45;9.75;;;9.40;99.90;;;;;;5014358;28;20428;-80
2022/04/16 07:03:51;;;;;;;17.55;8.55;;;9.50;99.90;;;;;;4998538;28;20038;-81
2022/04/16 07:06:17;;;;;;;14.75;7.63;;;9.40;99.90;;;;;;4997579;28;20652;-80
2022/04/16 07:08:43;;;;;;;17.10;9.05;;;9.40;99.90;;;;;;5014193;28;20046;-80
2022/04/16 07:11:08;;;;;;;17.15;9.07;;;9.50;99.90;;;;;;5013609;28;20493;-80
2022/04/16 07:13:34;;;;;;;21.90;8.77;;;9.80;99.90;;;;;;5015927;28;20049;-80
2022/04/16 07:16:00;;;;;;;18.17;9.25;;;10.20;99.90;;;;;;5014088;28;20073;-79
2022/04/16 07:18:26;;;;;;;17.02;8.43;;;10.70;99.90;;;;;;5014764;28;20069;-81
2022/04/16 07:20:51;;;;;;;16.08;8.10;;;11.10;99.90;;;;;;5014114;28;20096;-80
2022/04/16 07:23:17;;;;;;;18.13;9.32;;;11.50;99.90;;;;;;5015955;28;20049;-81
2022/04/16 07:25:43;;;;;;;16.33;8.15;;;12.10;99.90;;;;;;5014121;28;20046;-81
2022/04/16 07:28:09;;;;;;;16.92;9.18;;;12.50;99.90;;;;;;5014440;28;20053;-80
2022/04/16 07:30:34;;;;;;;17.42;9.02;;;12.90;99.90;;;;;;5013873;28;20137;-79
2022/04/16 07:33:00;;;;;;;14.95;8.38;;;13.20;99.90;;;;;;5013508;28;20040;-80
2022/04/16 07:35:26;;;;;;;15.38;8.48;;;13.60;99.90;;;;;;4997168;28;20029;-80
2022/04/16 07:37:56;;;;;;;18.38;9.30;;;14.00;99.90;;;;;;5013376;28;20450;-81
2022/04/16 07:40:25;;;;;;;13.27;8.57;;;14.20;99.90;;;;;;5013813;28;20552;-80
2022/04/16 07:42:51;;;;;;;14.20;8.02;;;14.10;99.90;;;;;;5013836;28;20065;-81
2022/04/16 07:45:17;;;;;;;15.43;8.75;;;13.80;99.90;;;;;;5013667;28;20037;-80
2022/04/16 07:47:43;;;;;;;14.15;8.27;;;13.50;99.90;;;;;;5014960;28;20507;-80
2022/04/16 07:50:09;;;;;;;18.00;9.32;;;13.50;99.90;;;;;;5014494;28;20557;-82
2022/04/16 07:52:35;;;;;;;15.77;9.40;;;13.60;99.90;;;;;;5000645;28;20038;-81
2022/04/16 07:55:00;;;;;;;16.77;9.35;;;13.80;99.90;;;;;;5000039;28;20038;-81
2022/04/16 07:57:26;;;;;;;13.90;8.75;;;14.00;99.90;;;;;;4998637;28;20046;-81
2022/04/16 07:59:54;;;;;;;14.07;8.60;;;14.10;99.90;;;;;;4999464;28;20044;-81
2022/04/16 08:02:20;;;;;;;14.98;8.77;;;14.10;99.90;;;;;;4999175;28;20181;-80
2022/04/16 08:04:45;;;;;;;13.65;8.23;;;14.40;99.90;;;;;;4998837;28;20045;-81
2022/04/16 08:07:11;;;;;;;14.15;8.10;;;14.80;99.90;;;;;;4998237;28;20042;-81
2022/04/16 08:09:36;;;;;;;13.20;7.40;;;15.10;99.90;;;;;;5014262;28;20117;-81
2022/04/16 08:12:03;;;;;;;11.85;6.60;;;15.30;99.90;;;;;;4996955;28;20100;-81
2022/04/16 08:14:28;;;;;;;11.98;7.10;;;15.40;99.90;;;;;;5013593;28;20041;-81
2022/04/16 08:16:54;;;;;;;11.77;7.63;;;15.20;99.90;;;;;;5014219;28;20053;-81
2022/04/16 08:19:19;;;;;;;9.88;6.50;;;15.30;99.90;;;;;;5014366;28;20042;-79
2022/04/16 08:21:45;;;;;;;11.30;6.90;;;15.30;99.90;;;;;;5016003;28;20104;-81
2022/04/16 08:26:36;;;;;;;13.82;7.13;;;15.20;99.90;;;;;;5013810;28;20041;-80
2022/04/16 08:29:02;;;;;;;9.85;6.72;;;15.20;99.90;;;;;;5014893;28;20045;-79
2022/04/16 08:31:28;;;;;;;11.70;6.35;;;15.30;99.90;;;;;;5013671;28;20405;-81
2022/04/16 08:33:54;;;;;;;11.73;6.05;;;15.50;99.90;;;;;;5014207;28;20135;-81
2022/04/16 08:36:19;;;;;;;10.18;5.80;;;15.70;99.90;;;;;;4996577;28;20052;-81
2022/04/16 08:38:45;;;;;;;9.23;5.43;;;15.80;99.90;;;;;;5012860;28;20034;-81
2022/04/16 08:41:11;;;;;;;9.75;5.38;;;15.90;99.90;;;;;;5012969;28;20489;-81
2022/04/16 08:43:39;;;;;;;9.43;4.95;;;16.00;99.90;;;;;;5013943;28;20377;-81
2022/04/16 08:46:04;;;;;;;9.73;5.40;;;15.90;99.90;;;;;;5013854;28;20129;-79
2022/04/16 08:48:32;;;;;;;11.63;5.60;;;15.70;99.90;;;;;;5012994;28;20069;-80
2022/04/16 08:50:58;;;;;;;10.50;5.22;;;15.70;99.90;;;;;;5013669;28;20464;-80
2022/04/16 08:53:24;;;;;;;11.30;5.90;;;15.70;99.90;;;;;;5013629;28;20049;-80
2022/04/16 08:55:49;;;;;;;9.35;4.45;;;15.50;99.90;;;;;;4996338;28;20045;-80
2022/04/16 08:58:15;;;;;;;7.88;4.65;;;15.50;99.90;;;;;;5014047;28;20073;-79
2022/04/16 09:00:41;;;;;;;10.07;5.47;;;15.10;99.90;;;;;;5012757;28;20508;-81
2022/04/16 09:03:09;;;;;;;5.53;3.80;;;15.00;99.90;;;;;;5012805;28;20038;-80
2022/04/16 09:05:35;;;;;;;5.45;3.80;;;15.20;99.90;;;;;;5013135;28;20535;-80
2022/04/16 09:08:05;;;;;;;6.82;3.53;;;15.40;99.90;;;;;;5011994;28;20525;-81
2022/04/16 09:10:36;;;;;;;6.22;3.35;;;15.60;99.90;;;;;;5011843;28;20656;-80
2022/04/16 09:13:04;;;;;;;5.47;3.10;;;15.90;99.90;;;;;;5014660;28;20074;-80
2022/04/16 09:15:31;;;;;;;3.60;2.88;;;16.10;99.90;;;;;;5010710;28;20041;-80
2022/04/16 09:18:02;;;;;;;6.53;3.15;;;16.10;99.90;;;;;;5012087;28;20046;-81
2022/04/16 09:20:36;;;;;;;5.97;3.17;;;16.10;99.90;;;;;;4995757;28;20164;-80
2022/04/16 09:23:17;;;;;;;9.30;3.55;;;15.90;99.90;;;;;;5013570;28;20296;-80
2022/04/16 09:25:43;;;;;;;5.43;2.60;;;16.10;99.90;;;;;;5013530;28;20061;-80
2022/04/16 09:28:09;;;;;;;3.78;2.03;;;16.20;99.90;;;;;;4995014;28;20046;-81
2022/04/16 09:30:37;;;;;;;2.88;1.90;;;16.40;99.90;;;;;;5024242;28;20554;-82
2022/04/16 09:33:03;;;;;;;3.03;1.83;;;16.30;99.90;;;;;;5018189;28;20076;-81
2022/04/16 09:35:36;;;;;;;3.40;1.80;;;16.30;99.30;;;;;;5012855;28;20045;-81
2022/04/16 09:38:07;;;;;;;2.85;1.50;;;15.80;78.60;;;;;;5010542;28;20041;-81
2022/04/16 09:40:36;;;;;;;4.70;2.30;;;15.30;90.10;;;;;;5011836;28;20049;-80
2022/04/16 09:43:07;;;;;;;4.18;2.00;;;15.30;93.70;;;;;;4994611;28;20034;-81
2022/04/16 09:45:33;;;;;;;2.33;1.70;;;15.40;91.10;;;;;;4994660;28;20049;-80
2022/04/16 09:48:00;;;;;;;2.55;1.60;;;15.70;95.90;;;;;;5011021;28;20077;-80
2022/04/16 09:50:27;;;;;;;2.58;1.55;;;16.00;95.00;;;;;;5011700;28;20049;-82
2022/04/16 09:53:02;;;;;;;2.92;1.45;;;16.10;94.40;;;;;;5011812;28;20064;-82
2022/04/16 09:55:29;;;;;;;5.10;1.77;;;16.10;92.60;;;;;;5011556;28;20049;-81
2022/04/16 09:58:06;;;;;;;4.30;1.70;;;16.10;93.60;;;;;;4994166;28;20404;-81
2022/04/16 10:00:35;;;;;;;8.40;2.33;;;16.20;66.70;;;;;;5010436;28;20120;-80
2022/04/16 10:03:04;;;;;;;4.30;1.88;;;16.20;90.60;;;;;;4994008;28;20088;-79
2022/04/16 10:05:29;;;;;;;1.88;1.23;;;16.50;88.80;;;;;;5010390;28;20042;-80
2022/04/16 10:07:56;;;;;;;2.92;1.55;;;16.60;85.40;;;;;;5010838;28;20122;-80
2022/04/16 10:10:31;;;;;;;2.20;1.77;;;16.50;85.60;;;;;;5011283;28;20497;-80
2022/04/16 10:13:10;;;;;;;3.83;1.83;;;16.60;82.00;;;;;;5010315;28;20042;-82
2022/04/16 10:16:07;;;;;;;4.85;1.40;;;16.50;72.90;;;;;;4993879;28;20037;-82
2022/04/16 10:18:35;;;;;;;3.80;1.70;;;16.40;73.20;;;;;;5010505;28;20428;-80
2022/04/16 10:21:02;;;;;;;4.53;1.60;;;16.10;77.80;;;;;;5010196;28;20088;-82
2022/04/16 10:23:28;;;;;;;5.53;1.55;;;16.00;88.30;;;;;;5010056;28;20038;-83
2022/04/16 10:26:02;;;;;;;1.98;1.20;;;15.90;88.40;;;;;;4993697;28;20053;-83
2022/04/16 10:28:33;;;;;;;2.78;1.48;;;15.80;66.30;;;;;;5009981;28;20030;-82
2022/04/16 10:30:59;;;;;;;2.22;1.33;;;15.50;74.20;;;;;;4994044;28;20500;-82
2022/04/16 10:33:28;;;;;;;3.00;1.17;;;15.30;91.70;;;;;;4994372;28;20128;-82
2022/04/16 10:36:09;;;;;;;2.80;1.10;;;15.20;89.20;;;;;;5010264;28;20230;-80
2022/04/16 10:38:43;;;;;;;2.85;1.10;;;15.10;78.90;;;;;;5010647;28;20096;-81
2022/04/16 10:41:17;;;;;;;1.02;0.80;;;15.00;83.30;;;;;;5009830;28;20046;-81
2022/04/16 10:43:57;;;;;;;3.03;1.10;;;15.10;68.50;;;;;;5010444;28;20038;-81
2022/04/16 10:46:24;;;;;;;3.45;1.00;;;15.30;65.80;;;;;;5010996;28;20092;-80
2022/04/16 10:48:50;;;;;;;2.35;1.15;;;15.50;74.00;;;;;;5027406;28;20448;-79
2022/04/16 10:51:21;;;;;;;1.98;1.10;;;15.70;75.60;;;;;;5010452;28;20092;-79
2022/04/16 10:53:46;;;;;;;1.88;0.80;;;15.80;72.00;;;;;;4994223;28;20541;-80
2022/04/16 10:56:15;;;;;;;2.88;1.20;;;15.90;66.50;;;;;;5010512;28;20052;-80
2022/04/16 10:58:41;;;;;;;2.83;0.88;;;15.70;57.00;;;;;;5009702;28;20045;-81
2022/04/16 11:01:09;;;;;;;1.27;1.10;;;15.50;61.70;;;;;;5009716;28;20049;-81
2022/04/16 11:03:44;;;;;;;1.75;1.60;;;15.60;56.10;;;;;;4993594;28;20374;-82
2022/04/16 11:06:11;;;;;;;2.17;1.30;;;15.50;54.70;;;;;;4993502;28;20049;-82
2022/04/16 11:08:38;;;;;;;2.00;0.90;;;15.50;59.40;;;;;;4993592;28;20165;-80
2022/04/16 11:11:04;;;;;;;1.50;1.00;;;15.70;58.10;;;;;;4996724;28;20057;-81
2022/04/16 11:13:34;;;;;;;1.63;0.90;;;15.60;58.60;;;;;;4997618;28;20048;-82
2022/04/16 11:16:01;;;;;;;2.17;0.90;;;15.50;57.70;;;;;;4997451;28;20049;-82
2022/04/16 11:18:36;;;;;;;2.45;1.00;;;15.40;57.50;;;;;;5013880;28;20131;-79
2022/04/16 11:21:07;;;;;;;1.48;0.85;;;15.30;53.90;;;;;;5014046;28;20128;-82
2022/04/16 11:23:43;;;;;;;1.35;0.90;;;15.30;55.90;;;;;;4998803;28;20145;-82
2022/04/16 11:34:26;;;;;;;1.17;1.00;;;15.40;56.90;;;;;;5029886;28;20132;-82
2022/04/16 11:36:52;;;;;;;1.92;0.70;;;15.50;57.30;;;;;;5013456;28;20148;-84
2022/04/16 11:39:19;;;;;;;1.85;1.02;;;15.50;55.30;;;;;;5013136;28;20402;-83
2022/04/16 11:41:50;;;;;;;1.55;0.95;;;15.50;54.80;;;;;;5013017;28;20095;-83
2022/04/16 11:44:16;;;;;;;0.95;0.88;;;15.60;53.40;;;;;;5013166;28;20049;-77
2022/04/16 11:46:42;;;;;;;1.25;0.75;;;15.60;53.20;;;;;;5013244;28;20042;-82
2022/04/16 11:49:10;;;;;;;1.45;0.80;;;15.60;52.30;;;;;;4996360;28;20132;-81
2022/04/16 11:51:38;;;;;;;3.78;0.95;;;15.70;53.00;;;;;;5012516;28;20057;-75
2022/04/16 11:54:04;;;;;;;1.58;0.85;;;15.80;52.60;;;;;;5012541;28;20042;-82
2022/04/16 11:56:30;;;;;;;1.40;0.80;;;15.80;53.30;;;;;;5012551;28;20117;-81
2022/04/16 11:58:55;;;;;;;1.27;0.95;;;15.80;52.80;;;;;;4996424;28;20117;-82
2022/04/16 12:01:24;;;;;;;1.00;0.88;;;15.80;52.50;;;;;;5012400;28;20405;-82
2022/04/16 12:03:56;;;;;;;3.00;1.05;;;15.70;51.20;;;;;;5013382;28;20469;-81
2022/04/16 12:06:22;;;;;;;1.00;0.80;;;15.60;51.00;;;;;;5013050;28;20526;-85
2022/04/16 12:08:49;;;;;;;1.45;0.82;;;15.60;50.80;;;;;;4996233;28;20042;-81
2022/04/16 12:11:19;;;;;;;1.73;0.80;;;15.50;50.40;;;;;;4996500;28;20046;-81
2022/04/16 12:13:45;;;;;;;1.35;0.90;;;15.50;49.90;;;;;;5012553;28;20061;-81
2022/04/16 12:16:15;;;;;;;1.20;1.10;;;15.40;51.30;;;;;;5012724;28;20409;-81
2022/04/16 12:18:42;;;;;;;1.80;1.30;;;15.40;51.80;;;;;;5012889;28;20037;-81
2022/04/16 12:21:13;;;;;;;2.42;0.85;;;15.30;50.70;;;;;;5011932;28;20093;-82
2022/04/16 12:23:40;;;;;;;2.10;0.85;;;15.30;49.80;;;;;;4996090;28;20096;-82
2022/04/16 12:26:07;;;;;;;2.17;0.70;;;15.40;51.70;;;;;;5012540;28;20485;-80
2022/04/16 12:28:55;;;;;;;1.27;0.75;;;15.50;50.00;;;;;;5012403;28;20076;-81
2022/04/16 12:31:30;;;;;;;1.48;0.70;;;15.50;46.90;;;;;;5012220;28;20198;-82
2022/04/16 12:33:56;;;;;;;0.80;0.73;;;15.50;49.30;;;;;;5012687;28;20060;-81
2022/04/16 12:36:22;;;;;;;1.00;0.90;;;15.60;49.60;;;;;;5012098;28;20046;-83
2022/04/16 12:38:47;;;;;;;1.40;0.90;;;15.50;49.90;;;;;;5012143;28;20049;-81
2022/04/16 12:41:13;;;;;;;1.80;1.20;;;15.50;50.80;;;;;;5012864;28;20054;-81
2022/04/16 12:43:40;;;;;;;1.23;0.93;;;15.60;49.00;;;;;;5012197;28;20165;-81
2022/04/16 12:46:06;;;;;;;1.40;0.80;;;15.70;49.80;;;;;;5011429;28;20413;-81
2022/04/16 12:48:32;;;;;;;1.85;1.13;;;15.70;49.70;;;;;;5011818;28;20034;-82
2022/04/16 12:50:57;;;;;;;0.85;0.70;;;15.90;49.50;;;;;;5011729;28;20600;-82
2022/04/16 12:53:24;;;;;;;2.50;0.80;;;15.70;49.90;;;;;;4995607;28;20042;-81
2022/04/16 12:55:50;;;;;;;1.13;0.77;;;15.70;49.50;;;;;;5012173;28;20052;-81
2022/04/16 12:58:16;;;;;;;3.17;0.95;;;15.50;49.60;;;;;;5020820;28;20121;-81
2022/04/16 13:00:41;;;;;;;1.63;0.82;;;15.50;50.20;;;;;;5016301;28;20050;-81
2022/04/16 13:03:07;;;;;;;4.82;1.27;;;15.50;50.70;;;;;;5014928;28;20120;-81